Time;durP1;ratioP1;P1;durP2;ratioP2;P2;SDS_P1;SDS_P2;PMS_P1;PMS_P2;Temp;Humidity;BMP_temperature;BMP_pressure;BME280_temperature;BME280_humidity;BME280_pressure;Samples;Min_cycle;Max_cycle;Signal;HPM_P1;HPM_P2
2021/08/03 00:01:27;;;;;;;10.03;9.00;;;;;;;;;;4972342;28;20891;-50
2021/08/03 00:03:54;;;;;;;11.67;9.60;;;;;;;;;;4972725;28;20796;-50
2021/08/03 00:06:21;;;;;;;12.47;9.07;;;;;;;;;;4972465;28;20463;-49
2021/08/03 00:08:52;;;;;;;12.07;9.73;;;;;;;;;;4972491;28;20489;-50
2021/08/03 00:11:18;;;;;;;10.03;8.90;;;;;;;;;;4972245;28;20482;-49
2021/08/03 00:13:44;;;;;;;10.77;9.67;;;;;;;;;;4972171;28;20429;-50
2021/08/03 00:16:11;;;;;;;14.50;8.53;;;;;;;;;;4972381;28;20437;-49
2021/08/03 00:18:38;;;;;;;9.20;8.27;;;;;;;;;;4972452;28;20398;-50
2021/08/03 00:21:04;;;;;;;13.63;8.90;;;;;;;;;;4972272;28;20754;-50
2021/08/03 00:23:30;;;;;;;10.83;9.00;;;;;;;;;;4971589;28;20432;-50
2021/08/03 00:25:57;;;;;;;11.03;8.73;;;;;;;;;;4972399;28;20413;-51
2021/08/03 00:28:23;;;;;;;10.17;8.97;;;;;;;;;;4972255;28;20400;-49
2021/08/03 00:30:50;;;;;;;10.10;8.87;;;;;;;;;;4972069;28;20461;-48
2021/08/03 00:33:16;;;;;;;10.00;7.93;;;;;;;;;;4996974;22;20527;-46
2021/08/03 00:35:42;;;;;;;11.60;8.73;;;;;;;;;;5009988;28;20954;-46
2021/08/03 00:38:08;;;;;;;12.03;9.17;;;;;;;;;;5011024;28;20400;-46
2021/08/03 00:40:36;;;;;;;15.73;9.80;;;;;;;;;;5010886;28;20405;-47
2021/08/03 00:43:03;;;;;;;9.40;8.40;;;;;;;;;;5010754;28;20427;-47
2021/08/03 00:45:29;;;;;;;15.37;9.00;;;;;;;;;;5011057;28;20399;-46
2021/08/03 00:47:55;;;;;;;10.30;9.33;;;;;;;;;;5010927;28;20404;-47
2021/08/03 00:50:21;;;;;;;17.20;11.03;;;;;;;;;;5010740;28;20459;-47
2021/08/03 00:52:47;;;;;;;12.50;9.90;;;;;;;;;;5010884;28;20430;-47
2021/08/03 00:55:13;;;;;;;14.03;10.53;;;;;;;;;;5010940;28;20870;-47
2021/08/03 00:57:40;;;;;;;11.97;9.87;;;;;;;;;;5010813;28;20410;-46
2021/08/03 01:00:06;;;;;;;13.20;10.43;;;;;;;;;;5010668;28;20435;-46
2021/08/03 01:02:33;;;;;;;125.90;53.80;;;;;;;;;;5009666;28;20480;-46
2021/08/03 01:04:59;;;;;;;15.73;10.97;;;;;;;;;;5010308;28;20993;-47
2021/08/03 01:07:31;;;;;;;16.93;12.10;;;;;;;;;;5010615;28;20788;-47
2021/08/03 01:10:09;;;;;;;20.63;11.10;;;;;;;;;;5010602;28;20875;-47
2021/08/03 01:12:56;;;;;;;16.90;10.73;;;;;;;;;;5010618;28;20849;-46
2021/08/03 01:15:29;;;;;;;13.93;10.67;;;;;;;;;;5010758;28;20399;-46
2021/08/03 01:18:14;;;;;;;13.63;10.53;;;;;;;;;;5010679;28;20404;-47
2021/08/03 01:20:47;;;;;;;13.43;10.93;;;;;;;;;;5010487;28;20879;-46
2021/08/03 01:23:29;;;;;;;27.57;14.60;;;;;;;;;;5010510;28;20931;-47
2021/08/03 01:26:01;;;;;;;13.17;10.77;;;;;;;;;;5010675;28;20526;-46
2021/08/03 01:28:28;;;;;;;21.43;13.00;;;;;;;;;;5010591;28;20465;-47
2021/08/03 01:30:57;;;;;;;16.70;10.10;;;;;;;;;;5010385;28;20411;-46
2021/08/03 01:33:26;;;;;;;14.67;10.57;;;;;;;;;;5010288;28;20442;-47
2021/08/03 01:35:52;;;;;;;26.80;14.83;;;;;;;;;;5013152;28;20400;-46
2021/08/03 01:38:21;;;;;;;18.30;11.87;;;;;;;;;;5014159;28;20401;-47
2021/08/03 01:40:48;;;;;;;15.70;9.57;;;;;;;;;;5013990;28;20410;-47
2021/08/03 01:43:15;;;;;;;13.67;10.53;;;;;;;;;;5013958;28;20924;-46
2021/08/03 01:45:42;;;;;;;11.97;9.50;;;;;;;;;;5014191;28;20453;-46
2021/08/03 01:48:08;;;;;;;12.57;10.47;;;;;;;;;;5014295;28;20487;-48
2021/08/03 01:50:35;;;;;;;11.97;10.00;;;;;;;;;;5013935;28;20463;-47
2021/08/03 01:53:02;;;;;;;12.67;10.40;;;;;;;;;;5014137;28;20770;-47
2021/08/03 01:55:29;;;;;;;12.67;11.00;;;;;;;;;;5014097;28;20430;-47
2021/08/03 01:57:56;;;;;;;12.47;10.10;;;;;;;;;;5013909;28;20414;-46
2021/08/03 02:00:21;;;;;;;14.43;10.77;;;;;;;;;;5013621;28;20403;-47
2021/08/03 02:02:48;;;;;;;12.23;10.80;;;;;;;;;;5013694;28;20804;-46
2021/08/03 02:05:15;;;;;;;17.50;10.67;;;;;;;;;;5013688;28;20487;-46
2021/08/03 02:07:41;;;;;;;12.70;11.23;;;;;;;;;;5013725;28;21033;-47
2021/08/03 02:10:08;;;;;;;13.73;10.13;;;;;;;;;;5013346;28;20455;-46
2021/08/03 02:12:34;;;;;;;16.37;10.50;;;;;;;;;;5013371;28;20432;-47
2021/08/03 02:15:00;;;;;;;12.43;11.17;;;;;;;;;;5013527;28;20427;-47
2021/08/03 02:17:27;;;;;;;15.67;10.63;;;;;;;;;;5013544;28;20883;-47
2021/08/03 02:19:53;;;;;;;62.20;15.43;;;;;;;;;;5013232;28;20887;-47
2021/08/03 02:22:19;;;;;;;12.10;9.93;;;;;;;;;;5013361;28;20400;-47
2021/08/03 02:24:45;;;;;;;12.67;9.47;;;;;;;;;;5013184;28;20841;-47
2021/08/03 02:27:11;;;;;;;14.07;9.67;;;;;;;;;;5013340;28;20404;-47
2021/08/03 02:29:39;;;;;;;15.40;13.37;;;;;;;;;;5013012;28;20455;-46
2021/08/03 02:32:07;;;;;;;56.03;19.00;;;;;;;;;;5013169;28;20466;-47
2021/08/03 02:34:37;;;;;;;71.03;17.63;;;;;;;;;;5012981;28;20424;-48
2021/08/03 02:37:04;;;;;;;55.33;3.90;;;;;;;;;;5013117;28;20404;-48
2021/08/03 02:39:31;;;;;;;59.20;5.00;;;;;;;;;;5012867;28;20914;-46
2021/08/03 02:41:58;;;;;;;58.67;5.30;;;;;;;;;;5012802;28;20407;-47
2021/08/03 02:44:25;;;;;;;59.20;5.70;;;;;;;;;;5012764;28;20514;-46
2021/08/03 02:46:55;;;;;;;61.83;6.80;;;;;;;;;;5012179;28;20891;-47
2021/08/03 02:49:34;;;;;;;60.30;5.57;;;;;;;;;;5012785;28;20462;-46
2021/08/03 02:52:01;;;;;;;73.83;14.90;;;;;;;;;;5012744;28;20495;-46
2021/08/03 02:54:32;;;;;;;82.27;15.83;;;;;;;;;;5012562;28;20415;-47
2021/08/03 02:57:01;;;;;;;76.80;9.90;;;;;;;;;;5012782;28;20889;-47
2021/08/03 02:59:28;;;;;;;76.17;10.33;;;;;;;;;;5012667;28;20406;-47
2021/08/03 03:01:56;;;;;;;67.97;8.40;;;;;;;;;;5012376;28;20462;-47
2021/08/03 03:04:24;;;;;;;64.13;9.90;;;;;;;;;;5012473;28;20915;-46
2021/08/03 03:06:54;;;;;;;79.00;16.83;;;;;;;;;;5012558;28;20449;-47
2021/08/03 03:09:24;;;;;;;75.10;10.27;;;;;;;;;;5012449;28;20458;-47
2021/08/03 03:11:54;;;;;;;83.23;15.20;;;;;;;;;;5012174;28;20410;-46
2021/08/03 03:14:22;;;;;;;75.67;10.13;;;;;;;;;;5012282;28;20571;-46
2021/08/03 03:16:49;;;;;;;74.10;9.60;;;;;;;;;;5012302;28;20407;-47
2021/08/03 03:19:17;;;;;;;84.67;17.13;;;;;;;;;;5012230;28;20404;-48
2021/08/03 03:21:44;;;;;;;77.50;10.50;;;;;;;;;;5012179;28;20418;-46
2021/08/03 03:24:10;;;;;;;75.00;9.53;;;;;;;;;;5012355;28;20930;-47
2021/08/03 03:26:38;;;;;;;71.80;11.77;;;;;;;;;;5012118;28;20411;-47
2021/08/03 03:29:04;;;;;;;69.90;8.73;;;;;;;;;;5012180;28;20464;-46
2021/08/03 03:31:31;;;;;;;76.43;22.53;;;;;;;;;;5011928;28;20913;-47
2021/08/03 03:33:58;;;;;;;56.40;9.80;;;;;;;;;;5011784;28;20483;-47
2021/08/03 03:36:29;;;;;;;9.80;8.80;;;;;;;;;;5012015;28;20431;-47
2021/08/03 03:38:56;;;;;;;17.93;11.47;;;;;;;;;;5012012;28;20406;-46
2021/08/03 03:41:24;;;;;;;13.13;9.57;;;;;;;;;;5011766;28;20383;-46
2021/08/03 03:43:50;;;;;;;12.53;9.60;;;;;;;;;;5011871;28;20428;-47
2021/08/03 03:46:17;;;;;;;10.87;9.60;;;;;;;;;;5011965;28;20461;-47
2021/08/03 03:48:49;;;;;;;16.80;10.10;;;;;;;;;;5012140;28;20407;-48
2021/08/03 03:51:16;;;;;;;12.20;9.37;;;;;;;;;;5011719;28;20406;-47
2021/08/03 03:53:43;;;;;;;10.63;9.53;;;;;;;;;;5011667;28;20484;-47
2021/08/03 03:56:10;;;;;;;11.90;9.40;;;;;;;;;;5011754;28;20436;-47
2021/08/03 03:58:40;;;;;;;12.83;9.33;;;;;;;;;;5011729;28;20513;-47
2021/08/03 04:01:06;;;;;;;11.10;9.90;;;;;;;;;;5011349;28;20402;-46
2021/08/03 04:03:34;;;;;;;11.57;10.33;;;;;;;;;;5011549;28;20424;-47
2021/08/03 04:06:01;;;;;;;12.87;10.20;;;;;;;;;;5011458;28;20892;-47
2021/08/03 04:08:29;;;;;;;13.33;10.40;;;;;;;;;;5011527;28;20434;-46
2021/08/03 04:11:00;;;;;;;433.10;125.43;;;;;;;;;;5011135;28;20425;-46
2021/08/03 04:13:26;;;;;;;18.17;16.23;;;;;;;;;;5011251;28;20423;-46
2021/08/03 04:15:52;;;;;;;12.10;9.60;;;;;;;;;;5011364;28;20502;-47
2021/08/03 04:18:18;;;;;;;12.33;11.10;;;;;;;;;;5011464;28;20408;-46
2021/08/03 04:20:44;;;;;;;15.80;14.47;;;;;;;;;;5011091;28;20404;-47
2021/08/03 04:23:10;;;;;;;10.47;9.37;;;;;;;;;;5011165;28;20495;-47
2021/08/03 04:25:35;;;;;;;12.13;10.73;;;;;;;;;;5011174;28;20450;-47
2021/08/03 04:28:02;;;;;;;12.30;10.40;;;;;;;;;;5011180;28;20416;-47
2021/08/03 04:30:28;;;;;;;16.03;11.07;;;;;;;;;;5011153;28;20461;-47
2021/08/03 04:32:54;;;;;;;16.33;11.33;;;;;;;;;;5010839;28;20429;-47
2021/08/03 04:35:20;;;;;;;15.23;10.10;;;;;;;;;;5011254;28;20466;-46
2021/08/03 04:37:47;;;;;;;16.27;10.83;;;;;;;;;;5011076;28;20406;-46
2021/08/03 04:40:14;;;;;;;12.17;10.07;;;;;;;;;;5010926;28;20435;-46
2021/08/03 04:42:41;;;;;;;11.67;10.30;;;;;;;;;;5010775;28;20746;-47
2021/08/03 04:45:07;;;;;;;13.30;10.63;;;;;;;;;;5010985;28;20410;-47
2021/08/03 04:47:33;;;;;;;16.80;11.13;;;;;;;;;;5011066;28;20450;-46
2021/08/03 04:49:59;;;;;;;14.13;11.37;;;;;;;;;;5010802;28;20821;-46
2021/08/03 04:52:25;;;;;;;14.73;10.77;;;;;;;;;;5010680;28;20370;-46
2021/08/03 04:54:51;;;;;;;14.10;12.70;;;;;;;;;;5010970;28;20408;-46
2021/08/03 04:57:18;;;;;;;22.00;12.70;;;;;;;;;;5010735;28;20935;-47
2021/08/03 04:59:44;;;;;;;15.60;14.00;;;;;;;;;;5010982;28;20857;-47
2021/08/03 05:02:10;;;;;;;18.10;13.77;;;;;;;;;;5010894;28;20406;-47
2021/08/03 05:04:36;;;;;;;19.90;16.07;;;;;;;;;;5010870;28;20845;-48
2021/08/03 05:07:02;;;;;;;18.37;14.80;;;;;;;;;;5010817;28;20380;-46
2021/08/03 05:09:28;;;;;;;25.03;14.30;;;;;;;;;;5011013;28;20448;-47
2021/08/03 05:11:54;;;;;;;19.87;15.90;;;;;;;;;;5014332;28;20394;-47
2021/08/03 05:14:20;;;;;;;19.93;15.60;;;;;;;;;;5014587;28;20425;-47
2021/08/03 05:16:46;;;;;;;17.87;14.30;;;;;;;;;;5014737;28;20466;-46
2021/08/03 05:19:12;;;;;;;18.23;14.80;;;;;;;;;;5014691;28;20450;-46
2021/08/03 05:21:38;;;;;;;18.47;15.23;;;;;;;;;;5014245;28;20467;-46
2021/08/03 05:24:04;;;;;;;20.57;15.70;;;;;;;;;;5014440;28;20424;-48
2021/08/03 05:26:30;;;;;;;18.03;15.90;;;;;;;;;;5014347;28;20892;-48
2021/08/03 05:28:56;;;;;;;19.30;15.77;;;;;;;;;;5014402;28;20384;-46
2021/08/03 05:31:22;;;;;;;19.53;14.90;;;;;;;;;;5014295;28;20491;-48
2021/08/03 05:33:48;;;;;;;19.10;15.33;;;;;;;;;;5014180;28;20890;-47
2021/08/03 05:36:14;;;;;;;15.77;13.83;;;;;;;;;;5014447;28;20488;-46
2021/08/03 05:38:40;;;;;;;21.13;16.97;;;;;;;;;;5014183;28;20400;-47
2021/08/03 05:41:06;;;;;;;19.50;16.53;;;;;;;;;;5014130;28;20403;-47
2021/08/03 05:43:32;;;;;;;20.33;15.53;;;;;;;;;;5014450;28;20424;-47
2021/08/03 05:45:58;;;;;;;19.13;15.00;;;;;;;;;;5014280;28;20401;-47
2021/08/03 05:48:24;;;;;;;17.50;14.60;;;;;;;;;;5014109;28;20364;-47
2021/08/03 05:50:51;;;;;;;14.53;12.40;;;;;;;;;;5013797;28;20573;-46
2021/08/03 05:53:17;;;;;;;20.57;15.23;;;;;;;;;;5013864;28;20430;-47
2021/08/03 05:55:43;;;;;;;15.77;13.97;;;;;;;;;;5013894;28;20406;-47
2021/08/03 05:58:09;;;;;;;17.67;13.90;;;;;;;;;;5013783;28;20413;-46
2021/08/03 06:00:35;;;;;;;18.30;15.77;;;;;;;;;;5013758;28;20461;-47
2021/08/03 06:03:01;;;;;;;18.40;15.10;;;;;;;;;;5013579;28;20457;-47
2021/08/03 06:05:30;;;;;;;18.70;15.23;;;;;;;;;;5013763;28;21106;-47
2021/08/03 06:07:57;;;;;;;17.50;14.50;;;;;;;;;;5013561;28;20455;-47
2021/08/03 06:10:27;;;;;;;19.90;14.63;;;;;;;;;;5013470;28;20436;-46
2021/08/03 06:12:54;;;;;;;25.83;15.07;;;;;;;;;;5013475;28;20422;-47
2021/08/03 06:15:20;;;;;;;16.93;14.60;;;;;;;;;;5013591;28;20865;-46
2021/08/03 06:17:50;;;;;;;16.97;14.40;;;;;;;;;;5013484;28;20415;-47
2021/08/03 06:20:16;;;;;;;18.33;15.40;;;;;;;;;;5013242;28;20603;-47
2021/08/03 06:22:42;;;;;;;15.80;14.10;;;;;;;;;;5012065;28;21107;-46
2021/08/03 06:25:09;;;;;;;21.67;15.03;;;;;;;;;;5013344;28;20406;-46
2021/08/03 06:27:35;;;;;;;18.93;15.40;;;;;;;;;;5013268;28;20407;-48
2021/08/03 06:30:05;;;;;;;22.10;15.20;;;;;;;;;;5013024;28;20458;-47
2021/08/03 06:32:31;;;;;;;18.43;15.37;;;;;;;;;;5013023;28;20886;-47
2021/08/03 06:34:58;;;;;;;18.33;14.90;;;;;;;;;;5026348;22;20486;-49
2021/08/03 06:37:24;;;;;;;18.87;15.47;;;;;;;;;;5012228;28;20493;-51
2021/08/03 06:39:50;;;;;;;19.40;15.57;;;;;;;;;;5012863;28;20396;-49
2021/08/03 06:42:18;;;;;;;20.73;15.83;;;;;;;;;;5012986;28;20382;-49
2021/08/03 06:44:45;;;;;;;20.67;16.37;;;;;;;;;;5012852;28;20418;-49
2021/08/03 06:47:12;;;;;;;19.50;15.30;;;;;;;;;;5013157;28;20394;-49
2021/08/03 06:49:41;;;;;;;20.13;15.80;;;;;;;;;;5012582;28;20431;-49
2021/08/03 06:52:10;;;;;;;23.90;17.80;;;;;;;;;;5012813;28;20407;-48
2021/08/03 06:54:37;;;;;;;24.33;16.27;;;;;;;;;;5012575;28;20419;-49
2021/08/03 06:57:12;;;;;;;23.63;18.07;;;;;;;;;;5012841;28;20448;-49
2021/08/03 06:59:59;;;;;;;21.93;18.00;;;;;;;;;;5012675;28;20396;-50
2021/08/03 07:02:33;;;;;;;21.27;16.97;;;;;;;;;;5011745;28;20419;-49
2021/08/03 07:05:00;;;;;;;28.33;18.27;;;;;;;;;;5012135;28;20409;-49
2021/08/03 07:07:27;;;;;;;21.90;17.00;;;;;;;;;;5012698;28;20445;-49
2021/08/03 07:09:54;;;;;;;22.70;16.83;;;;;;;;;;5011883;28;20434;-50
2021/08/03 07:12:21;;;;;;;26.77;16.90;;;;;;;;;;5012062;28;20443;-50
2021/08/03 07:14:48;;;;;;;21.00;16.23;;;;;;;;;;5012265;28;20420;-50
2021/08/03 07:17:15;;;;;;;20.50;14.90;;;;;;;;;;5012497;28;20433;-49
2021/08/03 07:19:41;;;;;;;19.73;15.60;;;;;;;;;;5011983;28;20458;-51
2021/08/03 07:22:14;;;;;;;22.07;15.27;;;;;;;;;;5012224;28;20390;-49
2021/08/03 07:24:41;;;;;;;20.40;16.63;;;;;;;;;;5012294;28;20406;-49
2021/08/03 07:27:07;;;;;;;25.03;17.00;;;;;;;;;;5012214;28;20403;-48
2021/08/03 07:29:33;;;;;;;18.90;14.73;;;;;;;;;;5011019;28;20470;-49
2021/08/03 07:31:59;;;;;;;17.90;15.97;;;;;;;;;;5011427;28;20463;-51
2021/08/03 07:34:25;;;;;;;22.03;15.70;;;;;;;;;;5010983;28;20423;-51
2021/08/03 07:36:51;;;;;;;16.70;13.70;;;;;;;;;;5011377;28;20393;-51
2021/08/03 07:39:17;;;;;;;17.73;14.00;;;;;;;;;;5011495;28;20793;-49
2021/08/03 07:41:43;;;;;;;21.77;14.80;;;;;;;;;;5011118;28;20408;-48
2021/08/03 07:44:09;;;;;;;20.10;15.17;;;;;;;;;;5011266;28;20957;-49
2021/08/03 07:46:36;;;;;;;17.37;15.33;;;;;;;;;;5011105;28;20430;-49
2021/08/03 07:49:06;;;;;;;15.70;13.80;;;;;;;;;;5011069;28;20390;-49
2021/08/03 07:51:32;;;;;;;20.87;12.60;;;;;;;;;;5010871;28;20459;-49
2021/08/03 07:53:58;;;;;;;15.10;13.43;;;;;;;;;;5011089;28;20493;-50
2021/08/03 07:56:24;;;;;;;19.20;14.80;;;;;;;;;;5011206;28;20890;-49
2021/08/03 07:58:50;;;;;;;23.50;16.03;;;;;;;;;;5010985;28;20372;-50
2021/08/03 08:01:20;;;;;;;22.53;16.60;;;;;;;;;;5010922;28;20405;-48
2021/08/03 08:03:46;;;;;;;24.20;15.77;;;;;;;;;;5010919;28;20407;-49
2021/08/03 08:06:12;;;;;;;23.20;17.27;;;;;;;;;;5011048;28;20883;-49
2021/08/03 08:08:39;;;;;;;21.47;16.57;;;;;;;;;;5011944;28;20836;-48
2021/08/03 08:11:05;;;;;;;24.10;18.50;;;;;;;;;;5010543;28;20455;-49
2021/08/03 08:13:31;;;;;;;20.60;17.20;;;;;;;;;;5010635;28;20495;-49
2021/08/03 08:15:57;;;;;;;18.17;16.17;;;;;;;;;;5010593;28;20405;-50
2021/08/03 08:18:23;;;;;;;22.43;17.30;;;;;;;;;;5010687;28;20404;-49
2021/08/03 08:20:49;;;;;;;27.77;15.77;;;;;;;;;;5010382;28;20419;-48
2021/08/03 08:23:16;;;;;;;20.57;16.50;;;;;;;;;;5010625;28;20545;-49
2021/08/03 08:25:44;;;;;;;21.90;16.67;;;;;;;;;;5010399;28;20529;-50
2021/08/03 08:28:10;;;;;;;17.53;13.80;;;;;;;;;;5010711;28;20538;-49
2021/08/03 08:30:37;;;;;;;17.53;13.87;;;;;;;;;;5009988;28;20962;-50
2021/08/03 08:33:03;;;;;;;14.47;13.03;;;;;;;;;;5010526;28;20854;-49
2021/08/03 08:35:29;;;;;;;15.60;13.63;;;;;;;;;;5010413;28;20460;-48
2021/08/03 08:37:55;;;;;;;14.37;12.87;;;;;;;;;;5010559;28;20371;-49
2021/08/03 08:40:21;;;;;;;18.30;13.90;;;;;;;;;;5010378;28;20368;-48
2021/08/03 08:42:47;;;;;;;16.43;14.17;;;;;;;;;;5010198;28;20488;-49
2021/08/03 08:45:14;;;;;;;14.73;12.40;;;;;;;;;;5009704;28;20425;-48
2021/08/03 08:47:47;;;;;;;15.93;13.80;;;;;;;;;;5010203;28;20782;-48
2021/08/03 08:50:14;;;;;;;24.23;13.47;;;;;;;;;;5010174;28;20791;-50
2021/08/03 08:52:41;;;;;;;15.30;12.47;;;;;;;;;;5008848;28;20417;-49
2021/08/03 08:55:08;;;;;;;17.30;13.80;;;;;;;;;;5010043;28;20879;-49
2021/08/03 08:57:34;;;;;;;17.67;13.67;;;;;;;;;;5010064;28;20409;-49
2021/08/03 09:00:00;;;;;;;21.80;13.50;;;;;;;;;;5010265;28;20410;-49
2021/08/03 09:02:43;;;;;;;11.83;10.10;;;;;;;;;;5010472;28;20429;-48
2021/08/03 09:05:10;;;;;;;10.63;8.90;;;;;;;;;;5012263;28;20452;-48
2021/08/03 09:07:49;;;;;;;9.37;8.47;;;;;;;;;;5010835;28;20889;-49
2021/08/03 09:10:33;;;;;;;8.10;7.40;;;;;;;;;;5010610;28;20456;-48
2021/08/03 09:13:22;;;;;;;10.33;8.47;;;;;;;;;;5010726;28;20868;-53
2021/08/03 09:15:59;;;;;;;16.90;9.17;;;;;;;;;;4998159;28;20423;-48
2021/08/03 09:18:28;;;;;;;9.10;8.07;;;;;;;;;;5010638;28;20423;-48
2021/08/03 09:20:54;;;;;;;10.10;7.70;;;;;;;;;;5010776;28;20454;-51
2021/08/03 09:23:20;;;;;;;11.37;7.60;;;;;;;;;;5010619;28;20406;-49
2021/08/03 09:25:53;;;;;;;8.27;7.57;;;;;;;;;;5010504;28;20422;-50
2021/08/03 09:28:19;;;;;;;8.73;7.93;;;;;;;;;;5010655;28;20435;-49
2021/08/03 09:30:45;;;;;;;8.17;7.37;;;;;;;;;;5010136;28;20490;-49
2021/08/03 09:33:20;;;;;;;12.13;7.30;;;;;;;;;;5010405;28;20511;-49
2021/08/03 09:35:46;;;;;;;6.97;6.27;;;;;;;;;;5010246;28;20465;-51
2021/08/03 09:38:16;;;;;;;7.60;5.80;;;;;;;;;;5010486;28;20411;-50
2021/08/03 09:40:43;;;;;;;8.20;5.87;;;;;;;;;;5010229;28;20457;-49
2021/08/03 09:43:10;;;;;;;6.10;5.60;;;;;;;;;;5010324;28;20911;-49
2021/08/03 09:45:54;;;;;;;5.60;5.10;;;;;;;;;;5010085;28;20431;-50
2021/08/03 09:48:21;;;;;;;6.17;4.30;;;;;;;;;;5010402;28;20476;-49
2021/08/03 09:50:53;;;;;;;4.70;4.27;;;;;;;;;;5010054;28;20458;-50
2021/08/03 09:53:35;;;;;;;7.70;4.13;;;;;;;;;;5010250;28;20395;-50
2021/08/03 09:56:01;;;;;;;13.17;4.97;;;;;;;;;;5011122;28;20403;-49
2021/08/03 09:58:27;;;;;;;4.43;4.00;;;;;;;;;;5014009;28;20399;-50
2021/08/03 10:00:53;;;;;;;4.50;3.90;;;;;;;;;;5013547;28;20441;-50
2021/08/03 10:03:19;;;;;;;3.93;3.20;;;;;;;;;;5013649;28;20476;-49
2021/08/03 10:05:47;;;;;;;5.07;3.77;;;;;;;;;;5013561;28;20430;-49
2021/08/03 10:08:13;;;;;;;6.70;3.60;;;;;;;;;;5013440;28;20481;-50
2021/08/03 10:10:39;;;;;;;6.27;4.23;;;;;;;;;;5013309;28;20450;-50
2021/08/03 10:13:05;;;;;;;5.03;4.23;;;;;;;;;;5013374;28;20400;-50
2021/08/03 10:15:31;;;;;;;3.50;3.20;;;;;;;;;;5013448;28;20907;-51
2021/08/03 10:17:57;;;;;;;5.07;3.70;;;;;;;;;;5013352;28;20909;-51
2021/08/03 10:20:22;;;;;;;4.50;4.13;;;;;;;;;;5013291;28;20509;-50
2021/08/03 10:22:57;;;;;;;6.60;6.00;;;;;;;;;;5013196;28;20586;-51
2021/08/03 10:25:31;;;;;;;4.40;3.50;;;;;;;;;;5013257;28;20840;-49
2021/08/03 10:27:57;;;;;;;5.70;4.50;;;;;;;;;;5013408;28;20903;-51
2021/08/03 10:30:28;;;;;;;6.93;4.23;;;;;;;;;;5012903;28;20524;-49
2021/08/03 10:33:15;;;;;;;5.50;4.07;;;;;;;;;;5013071;28;20773;-49
2021/08/03 10:35:49;;;;;;;4.13;3.47;;;;;;;;;;4963422;28;20450;-49
2021/08/03 10:38:28;;;;;;;4.93;3.80;;;;;;;;;;5012883;28;20405;-49
2021/08/03 10:40:55;;;;;;;5.17;3.47;;;;;;;;;;5012420;28;20509;-49
2021/08/03 10:43:25;;;;;;;4.77;3.53;;;;;;;;;;5012560;28;20905;-49
2021/08/03 10:46:29;;;;;;;7.00;4.40;;;;;;;;;;5012165;28;20430;-50
2021/08/03 10:48:56;;;;;;;6.20;4.37;;;;;;;;;;5009832;28;20817;-49
2021/08/03 10:51:25;;;;;;;6.43;3.77;;;;;;;;;;5012185;28;20744;-49
2021/08/03 10:53:54;;;;;;;6.60;3.50;;;;;;;;;;5012444;28;20912;-48
2021/08/03 10:56:20;;;;;;;4.40;3.50;;;;;;;;;;5011819;28;21043;-49
2021/08/03 10:58:46;;;;;;;4.30;3.90;;;;;;;;;;5012534;28;20481;-51
2021/08/03 11:01:32;;;;;;;5.17;4.23;;;;;;;;;;5012069;28;20990;-50
2021/08/03 11:03:58;;;;;;;7.23;4.07;;;;;;;;;;5011868;28;20436;-50
2021/08/03 11:06:24;;;;;;;5.53;4.20;;;;;;;;;;5011788;28;20505;-49
2021/08/03 11:08:50;;;;;;;4.93;4.37;;;;;;;;;;5011334;28;20494;-49
2021/08/03 11:11:19;;;;;;;4.97;4.30;;;;;;;;;;5011329;28;20432;-51
2021/08/03 11:13:50;;;;;;;4.50;4.07;;;;;;;;;;5011344;28;20422;-49
2021/08/03 11:16:19;;;;;;;11.10;4.63;;;;;;;;;;5011321;28;20412;-51
2021/08/03 11:18:45;;;;;;;4.93;4.00;;;;;;;;;;5008019;28;20830;-49
2021/08/03 11:21:13;;;;;;;3.60;3.30;;;;;;;;;;5011371;28;20502;-50
2021/08/03 11:23:58;;;;;;;3.97;3.00;;;;;;;;;;5011003;28;20457;-49
2021/08/03 11:26:26;;;;;;;3.97;3.10;;;;;;;;;;5009720;28;21152;-51
2021/08/03 11:28:59;;;;;;;3.97;3.17;;;;;;;;;;5009602;28;20905;-51
2021/08/03 11:31:41;;;;;;;4.97;3.80;;;;;;;;;;5010575;28;20414;-49
2021/08/03 11:34:07;;;;;;;4.20;3.90;;;;;;;;;;5011027;28;20441;-50
2021/08/03 11:36:34;;;;;;;5.47;5.07;;;;;;;;;;5011988;28;20401;-49
2021/08/03 11:39:00;;;;;;;5.87;5.37;;;;;;;;;;5009183;28;20452;-49
2021/08/03 11:41:26;;;;;;;5.67;4.70;;;;;;;;;;5011490;28;20912;-49
2021/08/03 11:43:53;;;;;;;4.63;4.10;;;;;;;;;;5011207;28;20934;-49
2021/08/03 11:46:28;;;;;;;4.80;4.47;;;;;;;;;;5011412;28;20490;-49
2021/08/03 11:49:06;;;;;;;5.97;4.40;;;;;;;;;;5011364;28;20415;-49
2021/08/03 11:51:37;;;;;;;6.83;4.50;;;;;;;;;;5011201;28;20954;-48
2021/08/03 11:54:11;;;;;;;4.67;4.27;;;;;;;;;;5010854;28;20426;-49
2021/08/03 11:56:37;;;;;;;4.27;3.87;;;;;;;;;;5011238;28;20407;-50
2021/08/03 11:59:03;;;;;;;4.60;4.20;;;;;;;;;;5010054;28;20407;-50
2021/08/03 12:01:45;;;;;;;6.40;4.17;;;;;;;;;;5009923;28;20407;-50
2021/08/03 12:04:15;;;;;;;4.27;3.87;;;;;;;;;;5010045;28;21187;-51
2021/08/03 12:06:41;;;;;;;5.43;3.90;;;;;;;;;;5010517;28;20427;-48
2021/08/03 12:09:07;;;;;;;3.80;3.47;;;;;;;;;;5008819;28;20485;-50
2021/08/03 12:11:34;;;;;;;6.00;3.67;;;;;;;;;;5010267;28;20761;-51
2021/08/03 12:14:10;;;;;;;4.00;3.43;;;;;;;;;;5011531;28;20856;-49
2021/08/03 12:16:36;;;;;;;4.70;3.50;;;;;;;;;;5011794;28;20759;-49
2021/08/03 12:19:02;;;;;;;5.20;4.40;;;;;;;;;;5011161;28;20403;-49
2021/08/03 12:21:35;;;;;;;4.17;3.77;;;;;;;;;;5011108;28;20409;-48
2021/08/03 12:24:08;;;;;;;4.30;4.00;;;;;;;;;;5011091;28;20463;-48
2021/08/03 12:26:35;;;;;;;4.27;3.77;;;;;;;;;;5011299;28;20431;-50
2021/08/03 12:29:02;;;;;;;4.47;3.97;;;;;;;;;;5011336;28;20401;-49
2021/08/03 12:31:32;;;;;;;3.90;3.60;;;;;;;;;;5011074;28;20452;-51
2021/08/03 12:34:14;;;;;;;4.70;4.13;;;;;;;;;;5010927;28;20441;-51
2021/08/03 12:36:41;;;;;;;3.37;3.07;;;;;;;;;;5034338;22;20508;-47
2021/08/03 12:39:09;;;;;;;5.17;3.83;;;;;;;;;;4990089;28;20426;-48
2021/08/03 12:41:36;;;;;;;4.53;3.60;;;;;;;;;;4991108;28;20479;-48
2021/08/03 12:44:02;;;;;;;4.80;4.30;;;;;;;;;;4991366;28;20422;-48
2021/08/03 12:46:32;;;;;;;4.13;3.73;;;;;;;;;;4991620;28;20771;-47
2021/08/03 12:48:58;;;;;;;4.00;3.70;;;;;;;;;;4991423;28;20909;-46
2021/08/03 12:51:27;;;;;;;4.20;3.83;;;;;;;;;;4991264;28;20431;-49
2021/08/03 12:53:53;;;;;;;4.20;3.80;;;;;;;;;;4991444;28;20463;-47
2021/08/03 12:56:30;;;;;;;4.23;3.83;;;;;;;;;;4991267;28;20420;-47
2021/08/03 12:58:56;;;;;;;3.83;3.53;;;;;;;;;;4991740;28;20394;-48
2021/08/03 13:01:25;;;;;;;4.47;4.10;;;;;;;;;;4989906;28;20509;-47
2021/08/03 13:03:52;;;;;;;4.80;3.97;;;;;;;;;;4991349;28;20468;-48
2021/08/03 13:06:19;;;;;;;3.70;3.40;;;;;;;;;;4991158;28;20424;-48
2021/08/03 13:08:46;;;;;;;4.93;4.50;;;;;;;;;;4991302;28;20535;-48
2021/08/03 13:11:12;;;;;;;4.37;3.93;;;;;;;;;;4990900;28;20453;-47
2021/08/03 13:13:38;;;;;;;4.00;3.20;;;;;;;;;;4991415;28;20419;-47
2021/08/03 13:16:05;;;;;;;4.60;3.50;;;;;;;;;;4991080;28;20422;-47
2021/08/03 13:18:31;;;;;;;4.73;3.10;;;;;;;;;;4991237;28;20400;-46
2021/08/03 13:20:58;;;;;;;3.20;3.00;;;;;;;;;;4990953;28;20438;-47
2021/08/03 13:23:24;;;;;;;3.90;3.20;;;;;;;;;;4991116;28;20409;-47
2021/08/03 13:25:50;;;;;;;3.33;3.13;;;;;;;;;;4990871;28;20487;-47
2021/08/03 13:28:16;;;;;;;3.67;3.37;;;;;;;;;;4991138;28;20747;-47
2021/08/03 13:30:43;;;;;;;3.40;3.20;;;;;;;;;;4991410;28;20554;-48
2021/08/03 13:33:09;;;;;;;3.10;2.90;;;;;;;;;;4994912;28;20421;-47
2021/08/03 13:35:35;;;;;;;4.07;3.10;;;;;;;;;;4994703;28;20903;-47
2021/08/03 13:38:02;;;;;;;3.50;3.20;;;;;;;;;;4994513;28;20425;-48
2021/08/03 13:40:28;;;;;;;11.10;3.37;;;;;;;;;;4994960;28;20427;-48
2021/08/03 13:42:54;;;;;;;3.77;3.57;;;;;;;;;;4994452;28;20403;-48
2021/08/03 13:45:20;;;;;;;3.33;3.10;;;;;;;;;;4994719;28;20780;-47
2021/08/03 13:47:46;;;;;;;4.83;3.40;;;;;;;;;;4994644;28;20425;-47
2021/08/03 13:50:12;;;;;;;3.60;3.30;;;;;;;;;;4994323;28;20474;-47
2021/08/03 13:52:38;;;;;;;6.03;4.40;;;;;;;;;;4994283;28;20405;-46
2021/08/03 13:55:04;;;;;;;3.93;3.63;;;;;;;;;;4994407;28;20402;-47
2021/08/03 13:57:30;;;;;;;4.77;4.37;;;;;;;;;;4994269;28;20475;-48
2021/08/03 13:59:56;;;;;;;4.73;3.83;;;;;;;;;;4994258;28;20407;-48
2021/08/03 14:02:22;;;;;;;3.67;3.30;;;;;;;;;;4994155;28;20425;-47
2021/08/03 14:04:48;;;;;;;5.03;3.60;;;;;;;;;;4998287;28;20533;-47
2021/08/03 14:07:14;;;;;;;3.80;3.50;;;;;;;;;;4994079;28;20435;-48
2021/08/03 14:09:40;;;;;;;4.17;3.23;;;;;;;;;;4993907;28;20463;-48
2021/08/03 14:12:06;;;;;;;3.80;3.50;;;;;;;;;;4994339;28;20415;-48
2021/08/03 14:14:32;;;;;;;3.90;3.70;;;;;;;;;;4994191;28;20459;-48
2021/08/03 14:16:58;;;;;;;4.20;3.80;;;;;;;;;;4994233;28;20431;-48
2021/08/03 14:19:24;;;;;;;6.93;4.73;;;;;;;;;;4994312;28;20498;-48
2021/08/03 14:21:50;;;;;;;5.47;4.97;;;;;;;;;;4994044;28;20415;-48
2021/08/03 14:24:17;;;;;;;4.57;4.17;;;;;;;;;;4994210;28;21056;-47
2021/08/03 14:26:43;;;;;;;4.93;4.40;;;;;;;;;;4993833;28;20439;-46
2021/08/03 14:29:09;;;;;;;5.00;4.60;;;;;;;;;;4992579;28;20555;-46
2021/08/03 14:31:35;;;;;;;4.87;4.47;;;;;;;;;;4993897;28;20411;-47
2021/08/03 14:34:02;;;;;;;5.87;5.27;;;;;;;;;;4993734;28;20408;-47